Time;durP1;ratioP1;P1;durP2;ratioP2;P2;SDS_P1;SDS_P2;PMS_P1;PMS_P2;Temp;Humidity;BMP_temperature;BMP_pressure;BME280_temperature;BME280_humidity;BME280_pressure;Samples;Min_cycle;Max_cycle;Signal;HPM_P1;HPM_P2
2022/02/12 00:00:50;;;;;;;;;67.25;54.75;;;;;4.08;68.53;102703.97;5013634;28;45371;-86
2022/02/12 00:03:16;;;;;;;;;73.25;58.75;;;;;3.92;68.37;102677.34;5012934;28;45646;-82
2022/02/12 00:05:42;;;;;;;;;72.67;57.00;;;;;3.91;68.49;102675.50;5031322;28;46205;-86
2022/02/12 00:08:07;;;;;;;;;69.50;57.25;;;;;3.77;68.57;102639.50;5030631;28;45433;-83
2022/02/12 00:10:32;;;;;;;;;78.00;61.00;;;;;3.57;68.69;102601.28;5031259;28;45388;-83
2022/02/12 00:12:58;;;;;;;;;74.00;58.67;;;;;3.75;68.32;102636.78;5030620;28;45550;-86
2022/02/12 00:15:23;;;;;;;;;74.50;60.25;;;;;3.72;68.44;102625.19;5030386;28;45510;-85
2022/02/12 00:17:49;;;;;;;;;70.00;57.25;;;;;4.16;68.63;102706.38;5031525;28;45596;-84
2022/02/12 00:20:15;;;;;;;;;70.00;57.25;;;;;4.14;68.41;102696.75;5030967;28;45479;-83
2022/02/12 00:22:41;;;;;;;;;73.00;57.50;;;;;3.55;68.38;102602.84;5030663;28;45210;-85
2022/02/12 00:25:08;;;;;;;;;66.50;54.25;;;;;4.15;68.10;102695.06;5012707;28;46973;-84
2022/02/12 00:27:34;;;;;;;;;67.25;54.75;;;;;3.67;68.43;102611.75;5012879;28;46363;-83
2022/02/12 00:29:59;;;;;;;;;69.25;56.75;;;;;4.09;68.34;102703.22;5012654;28;45550;-84
2022/02/12 00:32:25;;;;;;;;;70.00;57.00;;;;;4.07;68.41;102683.94;5030343;28;45494;-86
2022/02/12 00:34:51;;;;;;;;;58.25;47.50;;;;;3.31;68.27;102557.28;5012764;28;47851;-85
2022/02/12 00:37:16;;;;;;;;;73.00;57.50;;;;;3.45;68.42;102577.69;5011731;28;45558;-84
2022/02/12 00:39:42;;;;;;;;;69.00;57.00;;;;;3.56;68.77;102604.66;5013418;28;45605;-84
2022/02/12 00:42:08;;;;;;;;;71.75;59.25;;;;;3.88;68.57;102662.22;5012810;28;45480;-83
2022/02/12 00:44:34;;;;;;;;;71.25;58.00;;;;;3.45;68.36;102584.53;5030550;28;46693;-83
2022/02/12 00:46:59;;;;;;;;;67.25;56.50;;;;;3.12;68.50;102544.28;5030693;28;45386;-86
2022/02/12 00:49:25;;;;;;;;;69.33;56.00;;;;;3.74;68.76;102624.53;5030426;28;45452;-84
2022/02/12 00:51:51;;;;;;;;;68.00;56.00;;;;;3.85;68.73;102648.94;5030341;28;45613;-82
2022/02/12 00:54:17;;;;;;;;;65.00;55.50;;;;;4.03;68.72;102674.03;5029710;28;45359;-83
2022/02/12 00:56:42;;;;;;;;;66.75;53.75;;;;;4.04;68.73;102683.69;5011747;28;45625;-82
2022/02/12 00:59:08;;;;;;;;;63.75;53.75;;;;;3.63;68.48;102601.84;5030049;28;45392;-83
2022/02/12 01:01:34;;;;;;;;;62.25;51.50;;;;;4.04;68.63;102668.06;5012258;28;45402;-83
2022/02/12 01:04:01;;;;;;;;;65.00;54.00;;;;;3.06;68.52;102492.66;5030441;28;45556;-83
2022/02/12 01:06:26;;;;;;;;;69.25;54.50;;;;;4.04;68.55;102657.66;5011614;28;45530;-82
2022/02/12 01:08:52;;;;;;;;;69.00;55.00;;;;;3.61;68.78;102583.50;5030019;28;45459;-83
2022/02/12 01:11:17;;;;;;;;;64.67;53.67;;;;;3.11;68.73;102508.69;5011547;28;45660;-83
2022/02/12 01:13:43;;;;;;;;;68.00;56.00;;;;;3.52;69.01;102589.53;5029511;28;45516;-83
2022/02/12 01:16:08;;;;;;;;;66.50;53.75;;;;;3.72;68.76;102609.56;5029826;28;45453;-82
2022/02/12 01:18:34;;;;;;;;;65.75;53.75;;;;;3.69;68.93;102615.38;5030630;28;45729;-83
2022/02/12 01:21:00;;;;;;;;;62.50;53.00;;;;;3.26;68.80;102528.28;5029859;28;45542;-84
2022/02/12 01:23:25;;;;;;;;;62.75;51.50;;;;;3.42;68.64;102555.69;5029303;28;46076;-83
2022/02/12 01:25:51;;;;;;;;;63.75;51.75;;;;;3.80;68.88;102617.31;5030075;28;45388;-83
2022/02/12 01:28:17;;;;;;;;;64.25;51.00;;;;;3.43;68.82;102561.00;5029502;28;45426;-82
2022/02/12 01:30:44;;;;;;;;;63.50;52.25;;;;;3.82;68.97;102625.25;5030202;28;44840;-83
2022/02/12 01:33:10;;;;;;;;;66.00;54.00;;;;;3.88;68.91;102634.50;5010698;28;47310;-85
2022/02/12 01:35:35;;;;;;;;;62.75;49.75;;;;;3.39;68.81;102534.59;5011365;28;45630;-83
2022/02/12 01:38:01;;;;;;;;;66.00;55.25;;;;;3.67;69.06;102580.53;5011579;28;45463;-83
2022/02/12 01:40:27;;;;;;;;;63.67;52.67;;;;;3.81;69.04;102616.53;5029398;28;45418;-82
2022/02/12 01:42:53;;;;;;;;;62.00;51.25;;;;;3.42;68.97;102546.19;5029644;28;45655;-83
2022/02/12 01:45:18;;;;;;;;;63.00;51.50;;;;;3.55;69.67;102563.84;5011663;28;45593;-83
2022/02/12 01:47:44;;;;;;;;;64.00;52.25;;;;;3.38;69.07;102527.56;5030042;28;45332;-83
2022/02/12 01:50:09;;;;;;;;;60.00;50.50;;;;;3.82;69.14;102609.63;5010862;28;45595;-84
2022/02/12 01:52:37;;;;;;;;;62.00;52.75;;;;;3.82;69.27;102612.25;5010951;28;47196;-85
2022/02/12 01:55:05;;;;;;;;;61.25;49.50;;;;;3.91;69.05;102609.56;5029316;28;45455;-83
2022/02/12 01:57:31;;;;;;;;;62.50;53.00;;;;;3.63;68.89;102561.16;5029134;28;45678;-84
2022/02/12 01:59:57;;;;;;;;;61.75;48.75;;;;;3.92;68.84;102607.09;5029692;28;45438;-86
2022/02/12 02:02:24;;;;;;;;;59.50;49.50;;;;;3.49;68.97;102525.16;5029359;28;45983;-83
2022/02/12 02:04:50;;;;;;;;;54.50;47.25;;;;;3.67;69.30;102584.84;5029501;28;45461;-84
2022/02/12 02:07:15;;;;;;;;;62.25;51.50;;;;;3.94;69.31;102605.56;5010887;28;45472;-84
2022/02/12 02:09:41;;;;;;;;;64.75;53.25;;;;;3.01;69.23;102431.59;5029441;28;45703;-84
2022/02/12 02:12:07;;;;;;;;;61.50;50.25;;;;;3.64;69.06;102559.44;5028613;28;46548;-83
2022/02/12 02:14:38;;;;;;;;;62.25;51.00;;;;;3.31;68.98;102472.44;5029597;28;45682;-84
2022/02/12 02:17:04;;;;;;;;;54.00;45.75;;;;;3.22;69.08;102452.50;5011499;28;45392;-85
2022/02/12 02:19:30;;;;;;;;;59.00;50.75;;;;;3.03;68.87;102422.25;5029351;28;45490;-83
2022/02/12 02:21:57;;;;;;;;;56.25;48.00;;;;;3.48;69.35;102506.84;5029523;28;46143;-85
2022/02/12 02:24:23;;;;;;;;;65.25;52.75;;;;;3.51;69.23;102515.84;5010907;28;45898;-85
2022/02/12 02:26:48;;;;;;;;;62.25;51.00;;;;;3.66;69.24;102528.41;5029248;28;45578;-84
2022/02/12 02:29:15;;;;;;;;;61.50;49.50;;;;;3.43;69.24;102480.44;5010728;28;45533;-84
2022/02/12 02:31:40;;;;;;;;;62.00;52.00;;;;;3.65;69.38;102524.00;5011017;28;48191;-84
2022/02/12 02:34:10;;;;;;;;;61.25;50.75;;;;;3.53;69.37;102497.78;5010653;28;45607;-84
2022/02/12 02:36:36;;;;;;;;;64.25;51.50;;;;;3.10;69.10;102409.06;5029285;28;45559;-83
2022/02/12 02:39:01;;;;;;;;;54.75;46.25;;;;;3.15;69.11;102422.44;5029158;28;45616;-86
2022/02/12 02:41:27;;;;;;;;;60.75;51.00;;;;;3.86;69.29;102557.13;5028606;28;45934;-81
2022/02/12 02:43:52;;;;;;;;;64.25;52.00;;;;;3.66;69.20;102507.63;5029417;28;45444;-83
2022/02/12 02:46:18;;;;;;;;;59.25;49.50;;;;;3.91;69.05;102548.06;5032040;28;45741;-86
2022/02/12 02:48:44;;;;;;;;;39.00;35.75;;;;;3.34;69.29;102453.59;5014466;28;45571;-85
2022/02/12 02:56:37;;;;;;;;;61.25;50.00;;;;;3.28;69.10;102412.41;5032236;28;45861;-83
2022/02/12 02:59:03;;;;;;;;;52.67;46.00;;;;;3.81;69.24;102511.59;5032693;28;45638;-83
2022/02/12 03:01:28;;;;;;;;;59.50;49.00;;;;;3.48;69.04;102447.97;5032174;28;45898;-83
2022/02/12 03:03:54;;;;;;;;;58.75;47.50;;;;;3.79;69.30;102505.31;5032037;28;45416;-83
2022/02/12 03:06:24;;;;;;;;;60.25;48.75;;;;;3.75;69.28;102498.97;5032274;28;45591;-83
2022/02/12 03:08:50;;;;;;;;;60.00;50.50;;;;;3.48;69.21;102458.38;5032229;28;45545;-85
2022/02/12 03:11:16;;;;;;;;;59.75;47.75;;;;;3.36;69.34;102445.19;5031553;28;46465;-86
2022/02/12 03:13:44;;;;;;;;;62.25;50.75;;;;;3.68;69.44;102493.06;5032176;28;45682;-84
2022/02/12 03:16:10;;;;;;;;;62.50;52.25;;;;;3.56;70.08;102491.19;5031935;28;45416;-86
2022/02/12 03:18:37;;;;;;;;;56.75;45.50;;;;;3.60;69.70;102480.28;5032060;28;45325;-86
2022/02/12 03:21:03;;;;;;;;;61.75;48.25;;;;;3.32;69.78;102443.09;5013637;28;47402;-86
2022/02/12 03:23:28;;;;;;;;;54.50;45.25;;;;;3.07;69.61;102394.88;5031337;28;45796;-86
2022/02/12 03:25:54;;;;;;;;;56.25;47.50;;;;;2.68;69.58;102330.75;5013543;28;45586;-86
2022/02/12 03:28:19;;;;;;;;;52.33;44.33;;;;;3.50;69.86;102477.63;5031662;28;45624;-84
2022/02/12 03:30:46;;;;;;;;;55.00;46.00;;;;;3.49;69.37;102478.38;5032072;28;45439;-83
2022/02/12 03:33:12;;;;;;;;;56.75;47.75;;;;;3.51;69.88;102479.47;5013459;28;45706;-85
2022/02/12 03:35:39;;;;;;;;;52.25;46.00;;;;;3.00;69.67;102387.28;5031938;28;45521;-83
2022/02/12 03:38:05;;;;;;;;;54.75;46.00;;;;;2.98;69.71;102381.94;5031273;28;45445;-83
2022/02/12 03:40:30;;;;;;;;;50.00;42.25;;;;;3.16;69.71;102415.59;5031330;28;45534;-83
2022/02/12 03:42:56;;;;;;;;;57.00;46.33;;;;;3.45;69.61;102462.38;5013651;28;45529;-83
2022/02/12 03:45:22;;;;;;;;;57.75;45.75;;;;;2.76;69.30;102347.03;5031164;28;45569;-83
2022/02/12 03:47:49;;;;;;;;;57.25;46.50;;;;;2.67;69.49;102344.50;5013335;28;45621;-84
2022/02/12 03:50:14;;;;;;;;;52.25;44.75;;;;;3.01;69.73;102408.22;5013073;28;46290;-83
2022/02/12 03:52:40;;;;;;;;;59.50;47.25;;;;;2.96;69.50;102393.00;5031365;28;45462;-84
2022/02/12 03:55:06;;;;;;;;;53.00;46.00;;;;;2.30;69.83;102277.91;5031460;28;45577;-85
2022/02/12 03:57:31;;;;;;;;;53.50;47.00;;;;;2.50;69.77;102322.16;5030447;28;45407;-84
2022/02/12 03:59:56;;;;;;;;;56.00;46.33;;;;;2.75;69.98;102364.25;5013215;28;47021;-83
2022/02/12 04:02:21;;;;;;;;;59.67;49.67;;;;;2.56;69.81;102335.72;5030646;28;45308;-83
2022/02/12 04:04:50;;;;;;;;;53.67;45.33;;;;;2.88;69.84;102387.09;5031637;28;45400;-84
2022/02/12 04:07:15;;;;;;;;;54.50;45.25;;;;;2.00;69.77;102235.41;5030664;28;45465;-83
2022/02/12 04:09:41;;;;;;;;;53.00;46.25;;;;;2.14;69.79;102254.84;5031023;28;45541;-85
2022/02/12 04:12:06;;;;;;;;;56.50;48.75;;;;;3.12;69.98;102429.97;5030819;28;45343;-83
2022/02/12 04:14:32;;;;;;;;;46.00;43.00;;;;;2.02;69.81;102248.50;5031268;28;45527;-83
2022/02/12 04:16:57;;;;;;;;;59.00;46.33;;;;;1.74;69.74;102169.88;5031655;28;45630;-86
2022/02/12 04:19:22;;;;;;;;;54.00;47.00;;;;;2.44;69.87;102295.66;5030121;28;45359;-83
2022/02/12 04:21:48;;;;;;;;;54.00;45.00;;;;;2.99;70.08;102394.16;5013012;28;45279;-83
2022/02/12 04:24:13;;;;;;;;;50.00;45.33;;;;;2.06;69.95;102224.69;5030632;28;45293;-83
2022/02/12 04:26:38;;;;;;;;;44.75;40.50;;;;;2.84;70.34;102362.50;5030689;28;45606;-82
2022/02/12 04:29:04;;;;;;;;;41.00;39.67;;;;;2.44;69.93;102282.69;5030803;28;45595;-84
2022/02/12 04:31:29;;;;;;;;;39.67;36.33;;;;;2.40;70.31;102285.78;5012915;28;45554;-83
2022/02/12 04:33:54;;;;;;;;;40.33;35.33;;;;;3.04;70.43;102395.50;5012896;28;45495;-86
2022/02/12 04:36:19;;;;;;;;;46.33;42.33;;;;;2.55;70.16;102307.03;5030769;28;45476;-82
2022/02/12 04:38:45;;;;;;;;;58.67;45.67;;;;;3.15;70.08;102409.44;5030641;28;45886;-85
2022/02/12 04:41:10;;;;;;;;;53.00;45.00;;;;;2.54;70.06;102289.63;5029904;28;45355;-87
2022/02/12 04:43:37;;;;;;;;;57.33;46.00;;;;;3.15;70.23;102404.25;5031131;28;45443;-83
2022/02/12 04:46:03;;;;;;;;;50.50;43.50;;;;;3.16;70.21;102395.72;5012658;28;45588;-83
2022/02/12 04:48:28;;;;;;;;;49.00;44.00;;;;;2.79;69.97;102335.22;5030204;28;45956;-86
2022/02/12 04:50:54;;;;;;;;;56.00;44.50;;;;;3.10;70.27;102393.47;5030823;28;45428;-83
2022/02/12 04:53:19;;;;;;;;;46.00;39.67;;;;;2.77;70.39;102354.94;5030248;28;45455;-85
2022/02/12 04:55:44;;;;;;;;;54.00;46.33;;;;;2.52;70.34;102299.88;5030378;28;45465;-84
2022/02/12 04:58:09;;;;;;;;;45.00;42.33;;;;;2.45;70.54;102301.75;5030017;28;46212;-83
2022/02/12 05:00:35;;;;;;;;;52.00;44.33;;;;;2.59;69.98;102330.81;5012426;28;46288;-86
2022/02/12 05:03:00;;;;;;;;;46.50;41.75;;;;;3.03;70.48;102406.66;5030257;28;45616;-84
2022/02/12 05:05:25;;;;;;;;;47.33;42.67;;;;;3.00;70.66;102405.47;5030599;28;45522;-86
2022/02/12 05:07:51;;;;;;;;;47.00;41.00;;;;;2.42;70.30;102291.13;5011460;28;47431;-87
2022/02/12 05:10:16;;;;;;;;;43.33;40.33;;;;;2.87;70.42;102386.94;5011413;28;45555;-84
2022/02/12 05:12:42;;;;;;;;;46.25;41.75;;;;;2.51;70.40;102318.81;5030525;28;45506;-85
2022/02/12 05:15:07;;;;;;;;;47.00;43.33;;;;;2.52;70.02;102324.94;5030102;28;45325;-86
2022/02/12 05:17:33;;;;;;;;;41.75;37.25;;;;;2.65;70.47;102338.22;5029609;28;45387;-84
2022/02/12 05:19:59;;;;;;;;;41.25;38.50;;;;;2.48;70.29;102305.56;5029973;28;45500;-83
2022/02/12 05:22:25;;;;;;;;;35.75;32.00;;;;;1.39;70.06;102119.97;5011715;28;45416;-82
2022/02/12 05:24:50;;;;;;;;;36.00;34.25;;;;;2.87;69.80;102382.66;5030316;28;45443;-82
2022/02/12 05:27:16;;;;;;;;;45.00;40.50;;;;;2.82;70.32;102366.66;5011502;28;46997;-85
2022/02/12 05:29:41;;;;;;;;;35.25;31.50;;;;;2.24;70.21;102256.59;5012406;28;45958;-83
2022/02/12 05:32:07;;;;;;;;;48.67;42.67;;;;;2.41;70.57;102294.47;5011789;28;45607;-85
2022/02/12 05:34:32;;;;;;;;;47.25;39.00;;;;;2.36;70.28;102283.66;5030149;28;45569;-84
2022/02/12 05:36:58;;;;;;;;;46.00;40.33;;;;;2.30;70.11;102268.44;5029340;28;45590;-86
2022/02/12 05:39:23;;;;;;;;;42.50;38.50;;;;;2.89;70.25;102377.59;5011031;28;45411;-86
2022/02/12 05:41:49;;;;;;;;;46.50;41.75;;;;;2.68;70.20;102340.22;5029866;28;45878;-86
2022/02/12 05:44:14;;;;;;;;;39.00;36.25;;;;;2.49;70.31;102319.44;5029987;28;45716;-85
2022/02/12 05:46:40;;;;;;;;;42.50;38.00;;;;;2.64;69.93;102339.00;5011514;28;47438;-83
2022/02/12 05:49:07;;;;;;;;;38.75;35.50;;;;;2.78;70.16;102358.47;5029730;28;45466;-84
2022/02/12 05:51:32;;;;;;;;;46.50;40.25;;;;;1.82;69.87;102192.22;5029910;28;45482;-86
2022/02/12 05:54:00;;;;;;;;;40.25;38.50;;;;;2.74;70.06;102361.53;5011034;28;45731;-83
2022/02/12 05:56:25;;;;;;;;;37.00;36.00;;;;;2.62;70.19;102330.19;5010820;28;47186;-83
2022/02/12 05:58:51;;;;;;;;;37.50;33.75;;;;;1.18;69.97;102080.03;5011266;28;45568;-83
2022/02/12 06:01:16;;;;;;;;;48.67;44.67;;;;;2.66;70.06;102353.06;5029389;28;45520;-87
2022/02/12 06:03:41;;;;;;;;;55.25;45.25;;;;;1.79;70.17;102199.72;5030032;28;45424;-84
2022/02/12 06:06:07;;;;;;;;;53.67;47.00;;;;;2.32;69.98;102291.97;5011366;28;48356;-85
2022/02/12 06:08:32;;;;;;;;;42.00;39.67;;;;;1.97;70.38;102231.63;5029255;28;45661;-84
2022/02/12 06:10:59;;;;;;;;;36.50;35.25;;;;;2.36;70.59;102293.13;5011115;28;45763;-84
2022/02/12 06:13:24;;;;;;;;;40.00;39.25;;;;;2.10;70.59;102251.81;5029225;28;45586;-84
2022/02/12 06:15:49;;;;;;;;;45.75;41.75;;;;;2.26;70.45;102273.22;5029411;28;45579;-85
2022/02/12 06:18:15;;;;;;;;;45.00;36.00;;;;;2.16;70.69;102248.09;5028921;28;45484;-84
2022/02/12 06:20:40;;;;;;;;;39.50;36.75;;;;;2.63;70.69;102341.47;5014241;28;45684;-86
2022/02/12 06:23:05;;;;;;;;;42.00;40.67;;;;;2.08;70.84;102237.81;5032260;28;45424;-84
2022/02/12 06:25:31;;;;;;;;;41.00;38.00;;;;;2.43;70.94;102291.25;5032709;28;45471;-82
2022/02/12 06:27:57;;;;;;;;;34.67;33.67;;;;;2.61;70.66;102336.16;5014604;28;45416;-83
2022/02/12 06:30:23;;;;;;;;;35.00;34.25;;;;;1.51;70.59;102140.16;5032243;28;45462;-83
2022/02/12 06:32:48;;;;;;;;;42.00;40.25;;;;;1.59;70.50;102152.91;5033374;28;45653;-83
2022/02/12 06:35:14;;;;;;;;;42.00;38.33;;;;;2.16;70.59;102265.34;5032455;28;46194;-83
2022/02/12 06:37:39;;;;;;;;;38.25;35.25;;;;;1.01;70.34;102040.53;5031946;28;45439;-83
2022/02/12 06:40:05;;;;;;;;;39.25;35.25;;;;;1.89;70.35;102209.28;5032779;28;45542;-83
2022/02/12 06:42:31;;;;;;;;;38.00;35.25;;;;;2.20;70.55;102275.25;5032518;28;45473;-82
2022/02/12 06:44:56;;;;;;;;;39.25;37.25;;;;;1.91;70.56;102218.09;5032790;28;45567;-83
2022/02/12 06:47:21;;;;;;;;;37.33;35.33;;;;;2.08;70.25;102256.88;5032086;28;45372;-83
2022/02/12 06:49:47;;;;;;;;;45.67;41.00;;;;;1.64;70.22;102182.75;5042594;28;45507;-83
2022/02/12 06:52:12;;;;;;;;;40.75;37.00;;;;;1.97;70.27;102255.88;5001613;28;45281;-86
2022/02/12 06:54:37;;;;;;;;;41.00;38.25;;;;;1.99;70.38;102251.75;5003797;28;48285;-84
2022/02/12 06:57:03;;;;;;;;;44.50;42.00;;;;;1.03;70.28;102077.84;5023890;28;45660;-85
2022/02/12 06:59:29;;;;;;;;;47.50;40.75;;;;;2.26;70.58;102310.44;5027023;28;45121;-83
2022/02/12 07:01:54;;;;;;;;;47.00;43.50;;;;;2.09;70.27;102278.53;5024441;28;45339;-84
2022/02/12 07:04:20;;;;;;;;;48.50;43.25;;;;;1.89;70.64;102241.28;5019532;28;47208;-83
2022/02/12 07:06:45;;;;;;;;;46.75;43.50;;;;;1.42;70.34;102157.41;5025955;28;45020;-83
2022/02/12 07:09:11;;;;;;;;;46.50;41.75;;;;;2.27;70.46;102317.47;5023726;28;45476;-85
2022/02/12 07:11:38;;;;;;;;;45.00;41.50;;;;;2.26;70.59;102318.22;5019085;28;45667;-87
2022/02/12 07:14:03;;;;;;;;;43.75;39.00;;;;;1.60;70.34;102196.19;5030385;28;45234;-82
2022/02/12 07:16:29;;;;;;;;;46.50;42.50;;;;;2.24;70.31;102311.97;5028016;28;45415;-83
2022/02/12 07:18:54;;;;;;;;;60.00;47.00;;;;;2.08;70.45;102284.50;5014023;28;45604;-83
2022/02/12 07:21:19;;;;;;;;;62.00;47.75;;;;;2.17;70.45;102308.66;5014137;28;45729;-85
2022/02/12 07:23:45;;;;;;;;;60.33;49.67;;;;;2.23;70.75;102327.41;5000709;28;47148;-83
2022/02/12 07:26:11;;;;;;;;;46.67;41.00;;;;;2.24;70.81;102313.66;4998300;28;45534;-85
2022/02/12 07:28:40;;;;;;;;;45.25;42.00;;;;;1.70;70.66;102212.75;5026020;28;45802;-82
2022/02/12 07:31:11;;;;;;;;;39.50;38.00;;;;;1.75;70.81;102221.84;5026295;28;45412;-84
2022/02/12 07:33:36;;;;;;;;;40.00;37.25;;;;;2.24;70.93;102311.97;5027313;28;46351;-83
2022/02/12 07:36:02;;;;;;;;;46.00;42.25;;;;;1.68;70.97;102209.09;5030227;28;45163;-82
2022/02/12 07:38:27;;;;;;;;;43.00;39.75;;;;;1.40;70.84;102174.50;5029476;28;45272;-84
2022/02/12 07:40:53;;;;;;;;;42.00;39.50;;;;;1.31;70.87;102157.19;5029651;28;45708;-82
2022/02/12 07:43:18;;;;;;;;;61.50;47.25;;;;;2.03;71.17;102276.28;5026291;28;45996;-83
2022/02/12 07:45:43;;;;;;;;;55.00;47.00;;;;;1.85;70.96;102239.19;5029326;28;45372;-85
2022/02/12 07:48:09;;;;;;;;;45.00;41.67;;;;;1.50;71.20;102176.28;5029619;28;45479;-83
2022/02/12 07:50:34;;;;;;;;;62.75;52.00;;;;;1.96;71.20;102237.56;5035138;28;45252;-83
2022/02/12 07:53:00;;;;;;;;;57.00;47.50;;;;;2.49;71.07;102317.75;5034908;28;45297;-84
2022/02/12 07:55:25;;;;;;;;;51.67;44.67;;;;;2.52;70.69;102328.44;5037620;28;45470;-84
2022/02/12 07:57:50;;;;;;;;;51.50;45.50;;;;;2.21;70.93;102270.19;5047332;28;45038;-86
2022/02/12 08:00:17;;;;;;;;;48.75;40.50;;;;;2.55;70.88;102328.69;5033669;28;45579;-83
2022/02/12 08:02:43;;;;;;;;;43.25;40.00;;;;;2.00;70.67;102235.41;5033992;28;46684;-84
2022/02/12 08:05:09;;;;;;;;;34.50;33.25;;;;;2.59;70.76;102322.09;5035503;28;46177;-83
2022/02/12 08:07:38;;;;;;;;;42.75;39.75;;;;;2.44;70.96;102293.06;5036073;28;45366;-83
2022/02/12 08:11:22;;;;;;;;;42.25;40.75;;;;;1.98;70.86;102200.66;5042066;28;45907;-82
2022/02/12 08:12:52;;;;;;;;;41.00;39.50;;;;;1.34;70.82;102092.75;5036230;28;45694;-84
2022/02/12 08:15:18;;;;;;;;;45.00;38.25;;;;;2.50;71.05;102304.00;5017295;28;45908;-83
2022/02/12 08:17:43;;;;;;;;;50.00;38.00;;;;;2.33;71.04;102267.84;5014512;28;45369;-83
2022/02/12 08:20:09;;;;;;;;;35.25;33.75;;;;;2.26;70.90;102243.00;5013208;28;45587;-83
2022/02/12 08:22:35;;;;;;;;;37.25;37.25;;;;;2.84;71.01;102317.47;5033447;28;45535;-83
2022/02/12 08:25:00;;;;;;;;;40.00;37.50;;;;;2.85;70.85;102324.47;5041424;28;45383;-83
2022/02/12 08:27:28;;;;;;;;;34.75;32.25;;;;;2.66;71.17;102279.44;5049972;28;45559;-84
2022/02/12 08:29:54;;;;;;;;;31.75;28.00;;;;;2.91;71.17;102319.84;5050015;28;45221;-86
2022/02/12 08:32:21;;;;;;;;;21.00;19.75;;;;;2.48;70.90;102232.91;5049278;28;45462;-84
2022/02/12 08:34:47;;;;;;;;;23.00;18.75;;;;;2.87;70.79;102286.59;5050040;28;45144;-85
2022/02/12 08:37:13;;;;;;;;;25.25;22.50;;;;;2.73;71.06;102245.50;5049335;28;45199;-85
2022/02/12 08:39:39;;;;;;;;;20.50;19.50;;;;;3.15;70.92;102317.63;5050481;28;45345;-86
2022/02/12 08:42:05;;;;;;;;;18.67;16.33;;;;;2.83;70.64;102254.25;5031226;28;46226;-84
2022/02/12 08:44:30;;;;;;;;;26.00;23.50;;;;;2.05;70.71;102094.13;5049234;28;45379;-86
2022/02/12 08:46:56;;;;;;;;;22.67;21.33;;;;;2.91;70.51;102247.16;5031719;28;45816;-86
2022/02/12 08:49:22;;;;;;;;;23.75;22.75;;;;;3.05;70.58;102266.53;5030887;28;45360;-85
2022/02/12 08:51:47;;;;;;;;;24.75;23.75;;;;;2.98;70.55;102228.72;5030517;28;46200;-86
2022/02/12 08:54:13;;;;;;;;;20.50;17.00;;;;;3.46;70.37;102306.59;5030394;28;45520;-83
2022/02/12 08:56:41;;;;;;;;;24.75;24.00;;;;;3.32;70.57;102268.97;5030872;28;45451;-86
2022/02/12 08:59:08;;;;;;;;;28.75;25.00;;;;;2.87;70.48;102172.34;5029855;28;46037;-82
2022/02/12 09:01:37;;;;;;;;;27.50;25.50;;;;;3.65;70.52;102290.91;5012495;28;48228;-83
2022/02/12 09:04:03;;;;;;;;;23.50;21.00;;;;;3.19;70.43;102198.53;5012875;28;45751;-83
2022/02/12 09:06:28;;;;;;;;;21.25;20.75;;;;;3.45;70.16;102237.19;5030728;28;45464;-84
2022/02/12 09:08:56;;;;;;;;;22.50;22.25;;;;;3.83;70.27;102283.78;5030696;28;45524;-85
2022/02/12 09:11:22;;;;;;;;;25.00;20.25;;;;;3.91;70.05;102279.25;5011876;28;48174;-82
2022/02/12 09:13:50;;;;;;;;;20.00;19.25;;;;;3.67;69.95;102239.94;5030716;28;45784;-84
2022/02/12 09:16:17;;;;;;;;;18.75;16.25;;;;;3.79;69.69;102229.69;5030370;28;45480;-84
2022/02/12 09:18:44;;;;;;;;;22.00;20.75;;;;;3.50;69.75;102164.81;5030599;28;45452;-86
2022/02/12 09:21:09;;;;;;;;;20.50;18.00;;;;;3.63;69.16;102197.16;5011842;28;47115;-85
2022/02/12 09:23:35;;;;;;;;;21.00;20.00;;;;;4.09;69.37;102254.81;5029891;28;45475;-82
2022/02/12 09:26:00;;;;;;;;;20.00;18.50;;;;;3.13;68.68;102080.19;5030406;28;45392;-87
2022/02/12 09:28:26;;;;;;;;;21.25;19.25;;;;;4.28;68.47;102262.44;5030208;28;45675;-86
2022/02/12 09:30:51;;;;;;;;;17.75;17.50;;;;;3.41;68.91;102101.66;5030462;28;45475;-83
2022/02/12 09:33:16;;;;;;;;;18.67;17.33;;;;;3.49;68.39;102118.78;5011648;28;45376;-85
2022/02/12 09:35:42;;;;;;;;;22.00;18.25;;;;;3.86;68.12;102159.22;5030624;28;45702;-85
2022/02/12 09:38:07;;;;;;;;;17.25;16.50;;;;;4.12;68.42;102197.81;5011293;28;45553;-82
2022/02/12 09:40:33;;;;;;;;;19.75;19.50;;;;;4.18;68.16;102193.09;5029803;28;47455;-83
2022/02/12 09:43:01;;;;;;;;;18.25;17.50;;;;;4.33;67.79;102210.00;5011645;28;45443;-85
2022/02/12 09:45:39;;;;;;;;;21.00;19.25;;;;;4.01;67.85;102144.88;5030619;28;45616;-84
2022/02/12 09:48:08;;;;;;;;;18.75;18.75;;;;;4.68;67.37;102242.31;5030051;28;45539;-82
2022/02/12 09:50:36;;;;;;;;;21.25;18.00;;;;;4.66;67.21;102240.50;5031150;28;46305;-84
2022/02/12 09:53:02;;;;;;;;;14.75;14.25;;;;;4.03;67.05;102101.69;5066119;28;45042;-83
2022/02/12 09:55:29;;;;;;;;;18.00;17.00;;;;;4.63;66.95;102198.63;5057473;28;45497;-82
2022/02/12 09:57:54;;;;;;;;;17.25;15.50;;;;;3.67;66.39;102018.06;5058857;28;45560;-85
2022/02/12 10:00:22;;;;;;;;;16.00;14.75;;;;;5.01;66.36;102245.06;5043526;28;47352;-82
2022/02/12 10:02:48;;;;;;;;;16.25;16.25;;;;;4.37;66.25;102117.47;5063016;28;45791;-85
2022/02/12 10:05:25;;;;;;;;;14.00;13.50;;;;;5.14;66.32;102231.34;5045822;28;45016;-83
2022/02/12 10:08:07;;;;;;;;;16.00;15.25;;;;;4.58;65.79;102123.50;5055707;28;45460;-84
2022/02/12 10:10:36;;;;;;;;;17.50;16.75;;;;;5.04;65.67;102190.63;5059449;28;45580;-84
2022/02/12 10:13:14;;;;;;;;;18.75;15.75;;;;;4.59;65.88;102091.50;5034453;28;45931;-84
2022/02/12 10:15:41;;;;;;;;;18.25;15.50;;;;;5.42;65.35;102222.34;5053102;28;45582;-84
2022/02/12 10:18:09;;;;;;;;;15.00;14.00;;;;;5.27;64.92;102182.03;5052148;28;45566;-85
2022/02/12 10:20:37;;;;;;;;;15.25;13.75;;;;;5.56;64.81;102212.06;5050869;28;45328;-87
2022/02/12 10:23:09;;;;;;;;;21.50;20.00;;;;;5.26;64.72;102142.78;5035473;28;46045;-86
2022/02/12 10:25:36;;;;;;;;;15.25;15.00;;;;;5.72;63.73;102201.16;5050653;28;45359;-86
2022/02/12 10:28:03;;;;;;;;;15.00;14.00;;;;;5.79;64.16;102199.09;5049462;28;45611;-83
2022/02/12 10:30:30;;;;;;;;;15.25;14.50;;;;;5.23;63.75;102083.53;5043338;28;47456;-85
2022/02/12 10:33:01;;;;;;;;;22.75;21.25;;;;;5.75;63.93;102143.97;5031117;28;46013;-88
2022/02/12 10:35:27;;;;;;;;;15.25;15.25;;;;;6.05;63.14;102187.16;5034084;28;45438;-83
2022/02/12 10:37:58;;;;;;;;;20.25;17.75;;;;;6.12;63.08;102179.94;5052951;28;45575;-85
2022/02/12 10:40:25;;;;;;;;;14.00;12.75;;;;;6.12;62.64;102169.50;5061231;28;45852;-86
2022/02/12 10:42:51;;;;;;;;;10.50;10.25;;;;;6.27;62.23;102177.56;5068322;28;44954;-82
2022/02/12 10:45:18;;;;;;;;;14.00;13.50;;;;;5.87;62.11;102092.75;5066637;28;45116;-82
2022/02/12 10:47:45;;;;;;;;;11.75;10.00;;;;;6.14;61.72;102127.84;5049528;28;45418;-83
2022/02/12 10:50:12;;;;;;;;;14.00;11.50;;;;;6.48;61.04;102170.41;5046569;28;45684;-84
2022/02/12 10:52:42;;;;;;;;;14.00;12.00;;;;;6.53;60.77;102163.81;5034353;28;45838;-85
2022/02/12 10:55:20;;;;;;;;;14.50;14.50;;;;;6.57;60.21;102163.25;5033090;28;45490;-83
2022/02/12 10:57:45;;;;;;;;;7.75;7.75;;;;;5.90;60.34;102041.66;5033880;28;45613;-83
2022/02/12 11:00:11;;;;;;;;;13.33;11.33;;;;;6.19;60.28;102080.38;5039715;28;46182;-83
2022/02/12 11:02:39;;;;;;;;;15.00;13.75;;;;;6.56;59.95;102121.34;5047285;28;45166;-83
2022/02/12 11:05:05;;;;;;;;;16.50;15.25;;;;;6.60;60.09;102129.53;5047823;28;45003;-83
2022/02/12 11:07:31;;;;;;;;;10.25;8.25;;;;;6.62;60.00;102112.25;5036856;28;45496;-87
2022/02/12 11:09:57;;;;;;;;;15.00;14.50;;;;;6.58;59.38;102093.63;5027722;28;47076;-83
2022/02/12 11:12:29;;;;;;;;;14.75;12.75;;;;;5.83;59.72;101935.06;5043966;28;45321;-85
2022/02/12 11:14:55;;;;;;;;;7.50;6.50;;;;;7.01;59.56;102128.97;5041250;28;44754;-84
2022/02/12 11:17:22;;;;;;;;;13.00;12.00;;;;;6.90;59.31;102102.06;5024195;28;45347;-83